createdAt,value
2018-12-03T00:00:25.894Z,11.94
2018-12-03T00:02:57.761Z,11.93
2018-12-03T00:05:26.311Z,11.91
2018-12-03T00:07:54.778Z,11.92
2018-12-03T00:10:23.236Z,11.91
2018-12-03T00:12:53.649Z,11.87
2018-12-03T00:15:22.098Z,11.83
2018-12-03T00:17:50.535Z,11.80
2018-12-03T00:20:19.035Z,11.77
2018-12-03T00:22:47.446Z,11.72
2018-12-03T00:25:15.875Z,11.69
2018-12-03T00:27:51.475Z,11.64
2018-12-03T00:30:20.267Z,11.64
2018-12-03T00:32:48.788Z,11.62
2018-12-03T00:35:17.229Z,11.61
2018-12-03T00:41:43.090Z,11.66
2018-12-03T00:44:13.514Z,11.62
2018-12-03T00:47:06.807Z,11.63
2018-12-03T00:49:36.878Z,11.66
2018-12-03T00:52:08.495Z,11.69
2018-12-03T00:54:41.571Z,11.74
2018-12-03T00:57:12.053Z,11.78
2018-12-03T00:59:42.731Z,11.81
2018-12-03T01:02:28.304Z,11.85
2018-12-03T01:04:59.461Z,11.87
2018-12-03T01:07:30.028Z,11.86
2018-12-03T01:10:00.446Z,11.87
2018-12-03T01:12:30.922Z,11.89
2018-12-03T01:15:02.044Z,11.87
2018-12-03T01:17:32.743Z,11.86
2018-12-03T01:20:03.012Z,11.86
2018-12-03T01:22:33.532Z,11.85
2018-12-03T01:25:04.622Z,11.85
2018-12-03T01:27:35.129Z,11.86
2018-12-03T01:30:05.832Z,11.84
2018-12-03T01:32:36.935Z,11.89
2018-12-03T01:35:11.279Z,11.90
2018-12-03T01:37:42.398Z,11.92
2018-12-03T01:40:16.011Z,11.90
2018-12-03T01:42:47.629Z,11.91
2018-12-03T01:45:19.309Z,11.93
2018-12-03T01:47:50.230Z,11.94
2018-12-03T01:50:21.401Z,11.96
2018-12-03T01:52:52.609Z,11.92
2018-12-03T01:55:23.775Z,11.94
2018-12-03T01:57:54.681Z,11.91
2018-12-03T02:00:25.631Z,11.92
2018-12-03T02:02:56.368Z,11.92
2018-12-03T02:05:27.336Z,11.90
2018-12-03T02:07:58.152Z,11.87
2018-12-03T02:10:29.097Z,11.85
2018-12-03T02:12:59.550Z,11.88
2018-12-03T02:15:30.278Z,11.85
2018-12-03T02:18:00.505Z,11.82
2018-12-03T02:20:31.297Z,11.83
2018-12-03T02:23:02.467Z,11.87
2018-12-03T02:25:33.594Z,11.86
2018-12-03T02:28:04.109Z,11.84
2018-12-03T02:30:34.542Z,11.82
2018-12-03T02:33:05.698Z,11.83
2018-12-03T02:35:36.432Z,11.80
2018-12-03T02:38:06.288Z,11.78
2018-12-03T02:40:37.558Z,11.76
2018-12-03T02:43:08.674Z,11.73
2018-12-03T02:45:39.100Z,11.74
2018-12-03T02:48:09.653Z,11.72
2018-12-03T02:50:40.063Z,11.75
2018-12-03T02:53:11.538Z,11.74
2018-12-03T02:55:42.399Z,11.78
2018-12-03T02:58:13.345Z,11.84
2018-12-03T03:00:43.985Z,11.81
2018-12-03T03:03:14.816Z,11.77
2018-12-03T03:05:46.161Z,11.77
2018-12-03T03:08:17.415Z,11.78
2018-12-03T03:10:47.935Z,11.79
2018-12-03T03:13:18.518Z,11.81
2018-12-03T03:15:50.375Z,11.79
2018-12-03T03:18:20.508Z,11.77
2018-12-03T03:20:53.536Z,11.75
2018-12-03T03:23:24.740Z,11.83
2018-12-03T03:25:55.525Z,11.79
2018-12-03T03:28:26.756Z,11.77
2018-12-03T03:30:57.960Z,11.75
2018-12-03T03:33:28.884Z,11.75
2018-12-03T03:35:58.966Z,11.73
2018-12-03T03:38:29.752Z,11.75
2018-12-03T03:41:01.501Z,11.75
2018-12-03T03:43:32.377Z,11.74
2018-12-03T03:46:03.177Z,11.71
2018-12-03T03:48:33.885Z,11.70
2018-12-03T03:51:04.742Z,11.73
2018-12-03T03:53:35.139Z,11.76
2018-12-03T03:56:06.046Z,11.73
2018-12-03T03:58:36.567Z,11.72
2018-12-03T04:01:06.941Z,11.71
2018-12-03T04:03:38.704Z,11.71
2018-12-03T04:06:08.883Z,11.71
2018-12-03T04:08:40.095Z,11.76
2018-12-03T04:11:10.445Z,11.82
2018-12-03T04:13:40.885Z,11.85
2018-12-03T04:16:11.001Z,11.88
2018-12-03T04:18:41.549Z,11.91
2018-12-03T04:21:12.359Z,11.93
2018-12-03T04:23:43.087Z,11.92
2018-12-03T04:26:13.610Z,11.89
2018-12-03T04:28:44.214Z,11.90
2018-12-03T04:31:15.198Z,11.90
2018-12-03T04:33:47.828Z,11.92
2018-12-03T04:36:18.691Z,11.90
2018-12-03T04:38:49.798Z,11.87
2018-12-03T04:41:21.706Z,11.85
2018-12-03T04:43:52.730Z,11.81
2018-12-03T04:46:23.590Z,11.80
2018-12-03T04:48:54.798Z,11.84
2018-12-03T04:51:25.352Z,11.79
2018-12-03T04:53:55.722Z,11.84
2018-12-03T04:56:27.324Z,11.90
2018-12-03T04:58:59.477Z,11.93
2018-12-03T05:01:30.743Z,11.92
2018-12-03T05:04:01.403Z,11.89
2018-12-03T05:06:31.973Z,11.89
2018-12-03T05:09:02.458Z,11.98
2018-12-03T05:11:33.338Z,12.00
2018-12-03T05:14:03.816Z,11.98
2018-12-03T05:16:34.598Z,11.99
2018-12-03T05:19:05.155Z,12.05
2018-12-03T05:21:35.711Z,12.08
2018-12-03T05:24:06.810Z,12.13
2018-12-03T05:26:37.286Z,12.11
2018-12-03T05:29:08.289Z,12.10
2018-12-03T05:31:39.214Z,12.14
2018-12-03T05:34:10.398Z,12.11
2018-12-03T05:36:41.199Z,12.06
2018-12-03T05:39:12.329Z,12.02
2018-12-03T05:41:42.711Z,11.98
2018-12-03T05:44:16.106Z,12.01
2018-12-03T05:46:46.852Z,12.04
2018-12-03T05:49:19.770Z,12.06
2018-12-03T05:51:50.571Z,12.02
2018-12-03T05:54:20.803Z,12.00
2018-12-03T05:56:51.632Z,11.98
2018-12-03T05:59:22.378Z,11.95
2018-12-03T06:01:53.117Z,11.96
2018-12-03T06:04:24.618Z,11.93
2018-12-03T06:06:55.381Z,11.97
2018-12-03T06:09:25.970Z,12.00
2018-12-03T06:11:57.210Z,12.01
2018-12-03T06:14:27.068Z,11.99
2018-12-03T06:16:58.142Z,11.95
2018-12-03T06:19:28.268Z,11.93
2018-12-03T06:22:00.393Z,11.92
2018-12-03T06:24:30.900Z,11.88
2018-12-03T06:27:07.005Z,11.86
2018-12-03T06:29:38.856Z,11.78
2018-12-03T06:32:09.699Z,11.73
2018-12-03T06:34:40.580Z,11.62
2018-12-03T06:37:11.732Z,11.50
2018-12-03T06:39:42.591Z,11.43
2018-12-03T06:42:13.299Z,11.39
2018-12-03T06:44:44.650Z,11.38
2018-12-03T06:47:16.315Z,11.35
2018-12-03T06:49:47.193Z,11.30
2018-12-03T06:52:17.674Z,11.29
2018-12-03T06:54:49.346Z,11.34
2018-12-03T06:57:20.024Z,11.36
2018-12-03T06:59:50.897Z,11.35
2018-12-03T07:02:21.690Z,11.35
2018-12-03T07:04:52.468Z,11.35
2018-12-03T07:07:24.386Z,11.36
2018-12-03T07:09:55.181Z,11.35
2018-12-03T07:12:26.580Z,11.33
2018-12-03T07:14:57.453Z,11.30
2018-12-03T07:17:28.046Z,11.29
2018-12-03T07:19:59.232Z,11.27
2018-12-03T07:22:30.665Z,11.22
2018-12-03T07:25:02.337Z,11.18
2018-12-03T07:27:32.835Z,11.15
2018-12-03T07:30:05.891Z,11.13
2018-12-03T07:32:36.363Z,11.12
2018-12-03T07:35:07.114Z,11.14
2018-12-03T07:37:37.618Z,11.19
2018-12-03T07:40:09.561Z,11.23
2018-12-03T07:42:41.053Z,11.24
2018-12-03T07:45:21.353Z,11.20
2018-12-03T07:47:52.152Z,11.18
2018-12-03T07:50:23.901Z,11.18
2018-12-03T07:52:55.247Z,11.19
2018-12-03T07:55:28.100Z,11.17
2018-12-03T07:58:08.361Z,11.17
2018-12-03T08:00:49.934Z,11.12
2018-12-03T08:03:20.148Z,11.12
2018-12-03T08:05:51.949Z,11.09
2018-12-03T08:08:23.902Z,11.11
2018-12-03T08:10:59.101Z,11.10
2018-12-03T08:13:30.368Z,11.10
2018-12-03T08:16:00.932Z,11.09
2018-12-03T08:18:34.094Z,11.09
2018-12-03T08:21:13.719Z,11.11
2018-12-03T08:24:05.982Z,11.13
2018-12-03T08:26:36.578Z,11.15
2018-12-03T08:29:08.091Z,11.20
2018-12-03T08:31:39.286Z,11.21
2018-12-03T08:34:09.795Z,11.22
2018-12-03T08:36:41.036Z,11.25
2018-12-03T08:39:13.535Z,11.26
2018-12-03T08:41:45.377Z,11.24
2018-12-03T08:44:16.370Z,11.23
2018-12-03T08:46:49.169Z,11.25
2018-12-03T08:49:19.449Z,11.27
2018-12-03T08:51:50.339Z,11.26
2018-12-03T08:54:20.857Z,11.28
2018-12-03T08:56:51.787Z,11.28
2018-12-03T08:59:22.347Z,11.28
2018-12-03T09:01:53.574Z,11.27
2018-12-03T09:04:24.564Z,11.27
2018-12-03T09:06:55.281Z,11.31
2018-12-03T09:09:26.630Z,11.34
2018-12-03T09:11:57.504Z,11.41
2018-12-03T09:14:30.889Z,11.47
2018-12-03T09:17:02.583Z,11.50
2018-12-03T09:19:32.929Z,11.54
2018-12-03T09:22:04.201Z,11.57
2018-12-03T09:24:34.953Z,11.60
2018-12-03T09:27:06.409Z,11.62
2018-12-03T09:29:36.823Z,11.67
2018-12-03T09:32:07.325Z,11.66
2018-12-03T09:34:39.311Z,11.66
2018-12-03T09:37:10.507Z,11.67
2018-12-03T09:39:41.324Z,11.69
2018-12-03T09:42:12.308Z,11.68
2018-12-03T09:44:43.192Z,11.66
2018-12-03T09:47:13.513Z,11.65
2018-12-03T09:49:44.200Z,11.69
2018-12-03T09:52:14.569Z,11.78
2018-12-03T09:54:45.842Z,11.80
2018-12-03T09:57:15.972Z,11.80
2018-12-03T09:59:46.747Z,11.79
2018-12-03T10:02:19.740Z,11.77
2018-12-03T10:04:50.989Z,11.77
2018-12-03T10:07:22.386Z,11.79
2018-12-03T10:09:53.704Z,11.80
2018-12-03T10:12:25.768Z,11.80
2018-12-03T10:14:56.536Z,11.81
2018-12-03T10:17:27.033Z,11.82
2018-12-03T10:19:57.599Z,11.36
2018-12-03T10:22:27.795Z,11.90
2018-12-03T10:24:58.380Z,11.95
2018-12-03T10:27:30.263Z,11.97
2018-12-03T10:30:03.153Z,12.04
2018-12-03T10:32:35.086Z,12.09
2018-12-03T10:35:05.410Z,12.10
2018-12-03T10:37:35.884Z,12.12
2018-12-03T10:40:09.887Z,12.17
2018-12-03T10:42:40.261Z,12.16
2018-12-03T10:45:13.810Z,12.15
2018-12-03T10:47:43.979Z,12.14
2018-12-03T10:50:22.181Z,12.14
2018-12-03T10:52:51.514Z,12.17
2018-12-03T10:55:21.940Z,12.21
2018-12-03T10:57:52.891Z,12.19
2018-12-03T11:00:40.434Z,12.14
2018-12-03T11:03:49.901Z,12.09
2018-12-03T11:06:21.980Z,12.09
2018-12-03T11:08:52.982Z,12.07
2018-12-03T11:11:23.616Z,12.01
2018-12-03T11:13:57.419Z,11.99
2018-12-03T11:16:31.714Z,12.01
2018-12-03T11:19:02.769Z,12.06
2018-12-03T11:21:33.738Z,12.10
2018-12-03T11:24:04.291Z,12.15
2018-12-03T11:26:46.253Z,12.22
2018-12-03T11:29:17.271Z,12.24
2018-12-03T11:31:48.469Z,12.25
2018-12-03T11:34:25.491Z,12.29
2018-12-03T11:37:05.500Z,12.33
2018-12-03T11:39:57.533Z,12.35
2018-12-03T11:42:32.906Z,12.33
2018-12-03T11:45:04.045Z,12.33
2018-12-03T11:47:34.440Z,12.31
2018-12-03T11:50:05.105Z,12.34
2018-12-03T11:52:35.628Z,12.32
2018-12-03T11:55:06.707Z,12.27
2018-12-03T11:57:36.775Z,12.25
2018-12-03T12:00:09.966Z,12.24
2018-12-03T12:02:40.782Z,12.21
2018-12-03T12:05:11.567Z,12.17
2018-12-03T12:07:42.594Z,12.16
2018-12-03T12:10:14.644Z,12.19
2018-12-03T12:12:45.722Z,12.18
2018-12-03T12:15:16.223Z,12.22
2018-12-03T12:17:47.125Z,12.23
2018-12-03T12:20:17.689Z,12.34
2018-12-03T12:22:48.103Z,12.47
2018-12-03T12:25:18.754Z,12.51
2018-12-03T12:27:57.555Z,12.47
2018-12-03T12:30:28.054Z,12.49
2018-12-03T12:32:58.897Z,12.50
2018-12-03T12:35:29.488Z,12.55
2018-12-03T12:37:59.671Z,12.57
2018-12-03T12:40:30.184Z,12.55
2018-12-03T12:43:01.054Z,12.52
2018-12-03T12:45:43.190Z,12.45
2018-12-03T12:48:13.622Z,12.44
2018-12-03T12:50:44.825Z,12.45
2018-12-03T12:53:15.765Z,12.49
2018-12-03T12:55:47.035Z,12.48
2018-12-03T12:58:17.328Z,12.54
2018-12-03T13:00:48.167Z,12.50
2018-12-03T13:03:18.772Z,12.48
2018-12-03T13:05:51.556Z,12.47
2018-12-03T13:08:21.959Z,12.44
2018-12-03T13:10:52.438Z,12.42
2018-12-03T13:13:23.148Z,12.45
2018-12-03T13:15:53.802Z,12.51
2018-12-03T13:18:24.237Z,12.52
2018-12-03T13:20:54.532Z,12.50
2018-12-03T13:23:24.958Z,12.54
2018-12-03T13:25:55.428Z,12.58
2018-12-03T13:28:25.509Z,12.52
2018-12-03T13:30:56.354Z,12.49
2018-12-03T13:33:27.306Z,12.44
2018-12-03T13:35:57.916Z,12.37
2018-12-03T13:38:28.340Z,12.35
2018-12-03T13:40:59.772Z,12.30
2018-12-03T13:43:30.730Z,12.27
2018-12-03T13:46:02.418Z,12.26
2018-12-03T13:48:32.889Z,12.24
2018-12-03T13:51:04.076Z,12.22
2018-12-03T13:53:34.914Z,12.33
2018-12-03T13:56:05.964Z,12.45
2018-12-03T13:58:36.333Z,12.52
2018-12-03T14:01:07.414Z,12.51
2018-12-03T14:03:38.995Z,12.51
2018-12-03T14:06:27.951Z,12.48
2018-12-03T14:09:22.709Z,12.53
2018-12-03T14:12:11.592Z,12.48
2018-12-03T14:15:26.853Z,12.48
2018-12-03T14:18:31.130Z,12.46
2018-12-03T14:21:25.268Z,12.43
2018-12-03T14:23:57.353Z,12.45
2018-12-03T14:26:27.974Z,12.51
2018-12-03T14:28:58.958Z,12.46
2018-12-03T14:31:29.622Z,12.42
2018-12-03T14:34:01.048Z,12.34
2018-12-03T14:36:32.262Z,12.35
2018-12-03T14:39:07.803Z,12.42
2018-12-03T14:41:38.385Z,12.40
2018-12-03T14:44:08.498Z,12.36
2018-12-03T14:46:39.324Z,12.32
2018-12-03T14:49:10.143Z,12.31
2018-12-03T14:51:41.007Z,12.34
2018-12-03T14:54:11.466Z,12.35
2018-12-03T14:56:44.934Z,12.34
2018-12-03T14:59:15.770Z,12.35
2018-12-03T15:01:46.290Z,12.30
2018-12-03T15:04:16.762Z,12.31
2018-12-03T15:06:49.992Z,12.31
2018-12-03T15:09:20.570Z,12.28
2018-12-03T15:11:50.784Z,12.26
2018-12-03T15:14:21.217Z,12.26
2018-12-03T15:16:51.388Z,12.20
2018-12-03T15:19:22.658Z,12.18
2018-12-03T15:21:53.881Z,12.17
2018-12-03T15:24:24.397Z,12.18
2018-12-03T15:26:54.971Z,12.25
2018-12-03T15:29:26.036Z,12.24
2018-12-03T15:31:56.615Z,12.19
2018-12-03T15:34:27.100Z,12.15
2018-12-03T15:36:57.591Z,12.16
2018-12-03T15:39:29.047Z,12.18
2018-12-03T15:41:59.220Z,12.15
2018-12-03T15:44:30.064Z,12.09
2018-12-03T15:47:01.235Z,12.08
2018-12-03T15:49:31.674Z,12.08
2018-12-03T15:52:02.117Z,12.05
2018-12-03T15:54:33.141Z,12.07
2018-12-03T15:57:04.121Z,12.06
2018-12-03T15:59:34.854Z,11.96
2018-12-03T16:02:05.389Z,11.94
2018-12-03T16:04:36.324Z,11.86
2018-12-03T16:07:08.960Z,11.79
2018-12-03T16:09:39.860Z,11.73
2018-12-03T16:12:10.371Z,11.65
2018-12-03T16:14:40.983Z,11.58
2018-12-03T16:17:11.487Z,11.46
2018-12-03T16:19:42.539Z,11.29
2018-12-03T16:22:13.136Z,11.24
2018-12-03T16:24:43.574Z,11.18
2018-12-03T16:27:14.262Z,11.12
2018-12-03T16:29:44.791Z,11.08
2018-12-03T16:32:15.740Z,11.02
2018-12-03T16:34:45.899Z,11.00
2018-12-03T16:37:17.087Z,10.95
2018-12-03T16:39:48.033Z,10.92
2018-12-03T16:42:18.663Z,10.91
2018-12-03T16:44:49.714Z,10.88
2018-12-03T16:47:20.265Z,10.85
2018-12-03T16:49:51.180Z,10.84
2018-12-03T16:52:22.547Z,10.81
2018-12-03T16:54:53.440Z,10.76
2018-12-03T16:57:23.603Z,10.73
2018-12-03T16:59:54.137Z,10.70
2018-12-03T17:02:25.061Z,10.69
2018-12-03T17:04:56.107Z,10.73
2018-12-03T17:07:27.546Z,10.73
2018-12-03T17:10:00.360Z,10.71
2018-12-03T17:12:32.021Z,10.71
2018-12-03T17:15:02.910Z,10.69
2018-12-03T17:17:34.130Z,10.69
2018-12-03T17:20:05.700Z,10.67
2018-12-03T17:23:32.037Z,10.71
2018-12-03T17:26:02.796Z,10.71
2018-12-03T17:28:33.664Z,10.70
2018-12-03T17:31:04.804Z,10.67
2018-12-03T17:33:35.415Z,10.68
2018-12-03T17:36:06.105Z,10.67
2018-12-03T17:38:36.355Z,10.70
2018-12-03T17:41:07.808Z,10.70
2018-12-03T17:43:41.092Z,10.70
2018-12-03T17:46:11.602Z,10.69
2018-12-03T17:48:42.426Z,10.70
2018-12-03T17:51:12.890Z,10.73
2018-12-03T17:53:43.787Z,10.74
2018-12-03T17:56:14.465Z,10.74
2018-12-03T17:58:44.244Z,10.75
2018-12-03T18:01:14.700Z,10.76
2018-12-03T18:03:45.216Z,10.84
2018-12-03T18:06:17.176Z,10.86
2018-12-03T18:08:48.447Z,10.88
2018-12-03T18:11:30.586Z,10.88
2018-12-03T18:14:01.503Z,10.94
2018-12-03T18:16:32.264Z,11.00
2018-12-03T18:19:02.811Z,10.99
2018-12-03T18:21:33.651Z,11.04
2018-12-03T18:24:04.045Z,11.06
2018-12-03T18:26:35.357Z,11.06
2018-12-03T18:29:22.288Z,11.08
2018-12-03T18:31:41.985Z,11.07
2018-12-03T18:34:13.063Z,11.07
2018-12-03T18:36:44.107Z,11.09
2018-12-03T18:39:15.467Z,11.07
2018-12-03T18:41:46.102Z,11.10
2018-12-03T18:44:17.707Z,11.10
2018-12-03T18:46:49.321Z,11.09
2018-12-03T18:49:26.846Z,11.09
2018-12-03T18:51:58.141Z,11.07
2018-12-03T18:54:29.176Z,11.04
2018-12-03T18:56:59.713Z,11.07
2018-12-03T18:59:30.311Z,11.06
2018-12-03T19:02:00.815Z,11.05
2018-12-03T19:04:31.839Z,11.07
2018-12-03T19:07:02.226Z,11.05
2018-12-03T19:09:34.407Z,11.05
2018-12-03T19:12:05.729Z,11.05
2018-12-03T19:14:36.259Z,11.05
2018-12-03T19:17:07.450Z,11.05
2018-12-03T19:19:38.405Z,11.09
2018-12-03T19:22:10.029Z,11.13
2018-12-03T19:24:41.050Z,11.17
2018-12-03T19:27:12.034Z,11.19
2018-12-03T19:29:43.521Z,11.20
2018-12-03T19:32:13.617Z,11.20
2018-12-03T19:34:46.792Z,11.25
2018-12-03T19:37:17.028Z,11.26
2018-12-03T19:39:47.686Z,11.24
2018-12-03T19:42:18.891Z,11.27
2018-12-03T19:44:49.718Z,11.27
2018-12-03T19:47:20.579Z,11.23
2018-12-03T19:49:52.358Z,11.23
2018-12-03T19:52:22.935Z,11.21
2018-12-03T19:54:54.783Z,11.20
2018-12-03T19:57:28.815Z,11.19
2018-12-03T20:00:01.521Z,11.18
2018-12-03T20:02:33.279Z,11.18
2018-12-03T20:05:18.976Z,11.17
2018-12-03T20:07:49.135Z,11.17
2018-12-03T20:10:19.347Z,11.20
2018-12-03T20:12:50.390Z,11.23
2018-12-03T20:15:21.029Z,11.23
2018-12-03T20:17:52.306Z,11.24
2018-12-03T20:20:27.224Z,11.23
2018-12-03T20:23:11.575Z,11.24
2018-12-03T20:25:52.627Z,11.22
2018-12-03T20:28:32.716Z,11.20
2018-12-03T20:31:37.227Z,11.16
2018-12-03T20:34:25.415Z,11.13
2018-12-03T20:37:08.003Z,11.09
2018-12-03T20:40:03.450Z,11.06
2018-12-03T20:42:37.594Z,11.03
2018-12-03T20:45:51.351Z,11.04
2018-12-03T20:48:31.977Z,11.03
2018-12-03T20:51:14.210Z,11.03
2018-12-03T20:53:47.428Z,11.01
2018-12-03T20:56:18.788Z,10.98
2018-12-03T20:58:49.059Z,10.96
2018-12-03T21:01:19.723Z,10.94
2018-12-03T21:03:50.752Z,10.92
2018-12-03T21:06:23.212Z,10.90
2018-12-03T21:08:54.511Z,10.90
2018-12-03T21:11:24.584Z,10.91
2018-12-03T21:13:55.154Z,10.90
2018-12-03T21:16:25.948Z,10.88
2018-12-03T21:18:56.808Z,10.83
2018-12-03T21:21:28.464Z,10.88
2018-12-03T21:23:59.630Z,10.87
2018-12-03T21:26:30.604Z,10.85
2018-12-03T21:29:03.325Z,10.82
2018-12-03T21:31:34.699Z,10.79
2018-12-03T21:34:05.185Z,10.77
2018-12-03T21:36:36.055Z,10.76
2018-12-03T21:39:08.762Z,10.75
2018-12-03T21:41:39.505Z,10.72
2018-12-03T21:44:10.433Z,10.71
2018-12-03T21:46:40.894Z,10.71
2018-12-03T21:49:11.853Z,10.68
2018-12-03T21:51:42.920Z,10.67
2018-12-03T21:54:13.764Z,10.66
2018-12-03T21:56:44.669Z,10.66
2018-12-03T21:59:15.525Z,10.62
2018-12-03T22:01:46.522Z,10.62
2018-12-03T22:04:17.458Z,10.62
2018-12-03T22:06:48.594Z,10.62
2018-12-03T22:09:21.602Z,10.63
2018-12-03T22:11:52.424Z,10.64
2018-12-03T22:14:27.492Z,10.62
2018-12-03T22:16:58.969Z,10.62
2018-12-03T22:19:29.417Z,10.62
2018-12-03T22:22:00.265Z,10.63
2018-12-03T22:24:30.829Z,10.62
2018-12-03T22:27:01.479Z,10.63
2018-12-03T22:29:33.338Z,10.68
2018-12-03T22:32:07.341Z,10.68
2018-12-03T22:34:39.144Z,10.68
2018-12-03T22:37:10.416Z,10.69
2018-12-03T22:39:46.227Z,10.72
2018-12-03T22:42:13.171Z,10.72
2018-12-03T22:44:44.023Z,10.71
2018-12-03T22:47:15.382Z,10.67
2018-12-03T22:49:45.923Z,10.66
2018-12-03T22:52:17.417Z,10.67
2018-12-03T22:54:48.297Z,10.68
2018-12-03T22:57:20.334Z,10.66
2018-12-03T22:59:50.109Z,10.63
2018-12-03T23:02:23.454Z,10.60
2018-12-03T23:04:53.854Z,10.57
2018-12-03T23:07:23.681Z,10.33
2018-12-03T23:09:56.578Z,10.57
2018-12-03T23:12:30.736Z,10.54
2018-12-03T23:15:01.390Z,10.51
2018-12-03T23:17:31.644Z,10.49
2018-12-03T23:20:02.920Z,10.46
2018-12-03T23:22:35.105Z,10.45
2018-12-03T23:25:06.460Z,10.42
2018-12-03T23:27:37.301Z,10.37
2018-12-03T23:30:09.233Z,10.35
2018-12-03T23:32:40.366Z,10.31
2018-12-03T23:35:10.836Z,10.31
2018-12-03T23:37:41.413Z,10.28
2018-12-03T23:40:12.077Z,10.25
2018-12-03T23:42:42.940Z,10.22
2018-12-03T23:45:15.908Z,10.20
2018-12-03T23:47:45.974Z,10.18
2018-12-03T23:50:16.630Z,10.14
2018-12-03T23:52:47.594Z,9.93
2018-12-03T23:55:19.041Z,9.64
2018-12-03T23:57:49.492Z,9.41
